createdAt,value
2022-11-09T00:01:23.702Z,22.25
2022-11-09T00:03:59.618Z,24.38
2022-11-09T00:06:28.190Z,24.13
2022-11-09T00:08:55.672Z,24.98
2022-11-09T00:11:23.651Z,21.48
2022-11-09T00:13:51.188Z,22.15
2022-11-09T00:16:21.526Z,23.98
2022-11-09T00:18:48.995Z,24.10
2022-11-09T00:21:22.063Z,24.65
2022-11-09T00:23:50.034Z,24.92
2022-11-09T00:26:19.428Z,24.35
2022-11-09T00:28:47.079Z,23.48
2022-11-09T00:31:18.399Z,23.77
2022-11-09T00:33:49.814Z,25.80
2022-11-09T00:36:17.388Z,25.80
2022-11-09T00:38:50.613Z,25.38
2022-11-09T00:41:18.529Z,24.00
2022-11-09T00:43:46.218Z,26.95
2022-11-09T00:46:14.088Z,26.92
2022-11-09T00:48:41.435Z,25.92
2022-11-09T00:51:10.210Z,23.75
2022-11-09T00:53:37.591Z,22.55
2022-11-09T00:56:09.896Z,22.35
2022-11-09T00:58:38.940Z,23.38
2022-11-09T01:01:11.264Z,23.73
2022-11-09T01:03:39.365Z,22.05
2022-11-09T01:06:07.485Z,21.42
2022-11-09T01:08:35.829Z,22.08
2022-11-09T01:11:09.200Z,21.15
2022-11-09T01:13:37.948Z,21.65
2022-11-09T01:16:10.280Z,23.15
2022-11-09T01:18:38.393Z,23.20
2022-11-09T01:21:08.041Z,22.30
2022-11-09T01:23:35.664Z,23.00
2022-11-09T01:26:07.029Z,21.60
2022-11-09T01:28:34.601Z,21.60
2022-11-09T01:31:14.809Z,22.00
2022-11-09T01:33:42.792Z,21.20
2022-11-09T01:36:19.983Z,24.00
2022-11-09T01:38:47.907Z,22.13
2022-11-09T01:41:20.158Z,22.73
2022-11-09T01:44:11.315Z,22.15
2022-11-09T01:47:07.173Z,23.75
2022-11-09T01:49:54.596Z,23.52
2022-11-09T01:52:33.933Z,21.45
2022-11-09T01:55:07.398Z,21.98
2022-11-09T01:57:44.611Z,21.83
2022-11-09T02:00:18.182Z,22.00
2022-11-09T02:03:18.097Z,25.20
2022-11-09T02:05:45.871Z,21.15
2022-11-09T02:08:17.394Z,22.55
2022-11-09T02:11:11.117Z,23.67
2022-11-09T02:13:48.024Z,22.27
2022-11-09T02:16:15.781Z,22.23
2022-11-09T02:19:03.131Z,22.83
2022-11-09T02:21:32.137Z,21.10
2022-11-09T02:24:00.261Z,21.48
2022-11-09T02:26:34.828Z,22.40
2022-11-09T02:29:06.736Z,22.13
2022-11-09T02:31:42.922Z,22.42
2022-11-09T02:34:19.267Z,21.67
2022-11-09T02:36:46.856Z,22.52
2022-11-09T02:39:17.044Z,22.48
2022-11-09T02:41:53.866Z,22.40
2022-11-09T02:44:21.133Z,22.20
2022-11-09T02:46:48.276Z,22.05
2022-11-09T02:49:15.320Z,22.80
2022-11-09T02:51:42.630Z,23.35
2022-11-09T02:54:09.762Z,22.58
2022-11-09T02:56:36.827Z,23.77
2022-11-09T02:59:04.135Z,22.52
2022-11-09T03:01:31.275Z,24.63
2022-11-09T03:03:58.371Z,23.85
2022-11-09T03:06:34.568Z,23.92
2022-11-09T03:09:09.828Z,24.35
2022-11-09T03:11:37.984Z,23.83
2022-11-09T03:14:05.231Z,22.13
2022-11-09T03:16:32.588Z,23.45
2022-11-09T03:19:00.048Z,23.08
2022-11-09T03:21:28.365Z,22.70
2022-11-09T03:23:55.807Z,23.60
2022-11-09T03:26:23.332Z,22.65
2022-11-09T03:28:50.726Z,22.90
2022-11-09T03:31:18.080Z,22.73
2022-11-09T03:33:45.251Z,24.23
2022-11-09T03:36:12.546Z,23.13
2022-11-09T03:38:39.585Z,23.73
2022-11-09T03:41:06.656Z,23.90
2022-11-09T03:43:33.702Z,24.27
2022-11-09T03:46:00.750Z,24.88
2022-11-09T03:48:27.850Z,25.80
2022-11-09T03:50:57.513Z,24.60
2022-11-09T03:53:24.568Z,25.73
2022-11-09T03:55:51.588Z,25.58
2022-11-09T03:58:18.643Z,25.50
2022-11-09T04:00:45.657Z,27.15
2022-11-09T04:03:12.727Z,28.38
2022-11-09T04:05:39.817Z,28.35
2022-11-09T04:08:06.846Z,29.08
2022-11-09T04:10:34.220Z,28.85
2022-11-09T04:13:01.315Z,29.45
2022-11-09T04:15:28.444Z,34.28
2022-11-09T04:18:00.587Z,33.78
2022-11-09T04:20:30.368Z,38.22
2022-11-09T04:23:00.530Z,34.35
2022-11-09T04:25:31.704Z,36.33
2022-11-09T04:28:00.446Z,37.70
2022-11-09T04:30:29.647Z,34.50
2022-11-09T04:32:57.999Z,36.47
2022-11-09T04:35:27.101Z,35.13
2022-11-09T04:38:01.834Z,35.95
2022-11-09T04:40:32.190Z,36.28
2022-11-09T04:43:07.554Z,35.47
2022-11-09T04:45:35.730Z,36.70
2022-11-09T04:48:06.231Z,34.90
2022-11-09T04:50:34.112Z,33.47
2022-11-09T04:53:07.915Z,35.58
2022-11-09T04:55:35.404Z,35.75
2022-11-09T04:58:02.788Z,34.75
2022-11-09T05:00:30.339Z,34.63
2022-11-09T05:03:02.230Z,35.88
2022-11-09T05:05:30.434Z,35.80
2022-11-09T05:07:57.446Z,35.67
2022-11-09T05:10:24.563Z,35.20
2022-11-09T05:13:01.307Z,36.00
2022-11-09T05:15:28.868Z,33.58
2022-11-09T05:17:56.980Z,33.10
2022-11-09T05:20:24.962Z,33.58
2022-11-09T05:23:11.012Z,33.33
2022-11-09T05:25:38.054Z,32.08
2022-11-09T05:28:05.652Z,33.03
2022-11-09T05:30:32.685Z,34.47
2022-11-09T05:32:59.840Z,34.13
2022-11-09T05:35:27.301Z,34.63
2022-11-09T05:37:54.423Z,34.85
2022-11-09T05:40:21.880Z,34.25
2022-11-09T05:42:49.171Z,31.90
2022-11-09T05:45:41.438Z,36.05
2022-11-09T05:48:06.692Z,36.50
2022-11-09T05:50:33.766Z,32.33
2022-11-09T05:53:02.249Z,33.60
2022-11-09T05:55:29.516Z,35.17
2022-11-09T05:57:57.067Z,33.50
2022-11-09T06:00:24.365Z,34.72
2022-11-09T06:02:51.431Z,32.05
2022-11-09T06:05:20.212Z,35.30
2022-11-09T06:07:47.253Z,32.13
2022-11-09T06:10:14.411Z,33.20
2022-11-09T06:12:41.509Z,33.50
2022-11-09T06:15:09.369Z,33.88
2022-11-09T06:17:36.440Z,31.30
2022-11-09T06:20:04.550Z,34.38
2022-11-09T06:22:31.783Z,32.83
2022-11-09T06:24:58.922Z,32.70
2022-11-09T06:27:25.986Z,33.50
2022-11-09T06:29:53.048Z,32.10
2022-11-09T06:32:20.099Z,36.15
2022-11-09T06:34:49.878Z,30.67
2022-11-09T06:37:20.155Z,33.30
2022-11-09T06:39:48.273Z,30.92
2022-11-09T06:42:15.713Z,33.90
2022-11-09T06:44:42.792Z,33.03
2022-11-09T06:47:09.908Z,33.65
2022-11-09T06:49:36.947Z,33.22
2022-11-09T06:52:04.480Z,31.35
2022-11-09T06:54:32.727Z,31.05
2022-11-09T06:56:59.962Z,31.95
2022-11-09T06:59:27.143Z,30.90
2022-11-09T07:01:58.795Z,29.45
2022-11-09T07:04:28.290Z,32.20
2022-11-09T07:06:55.333Z,30.73
2022-11-09T07:09:22.454Z,33.13
2022-11-09T07:11:49.917Z,31.73
2022-11-09T07:14:17.285Z,31.55
2022-11-09T07:16:44.402Z,31.05
2022-11-09T07:19:11.420Z,31.65
2022-11-09T07:21:38.485Z,31.85
2022-11-09T07:24:06.077Z,31.10
2022-11-09T07:26:33.135Z,31.48
2022-11-09T07:29:00.165Z,30.85
2022-11-09T07:31:29.417Z,30.40
2022-11-09T07:33:58.407Z,30.55
2022-11-09T07:36:25.455Z,29.05
2022-11-09T07:38:52.614Z,29.38
2022-11-09T07:41:19.709Z,30.98
2022-11-09T07:43:46.797Z,30.38
2022-11-09T07:46:13.993Z,30.80
2022-11-09T07:48:41.131Z,28.80
2022-11-09T07:51:11.208Z,27.73
2022-11-09T07:53:38.794Z,30.75
2022-11-09T07:56:06.601Z,29.25
2022-11-09T07:58:35.832Z,31.13
2022-11-09T08:01:10.685Z,29.42
2022-11-09T08:03:38.054Z,27.97
2022-11-09T08:06:05.405Z,29.15
2022-11-09T08:08:32.583Z,29.80
2022-11-09T08:10:59.649Z,27.20
2022-11-09T08:13:27.378Z,27.73
2022-11-09T08:15:54.566Z,26.20
2022-11-09T08:18:23.641Z,27.02
2022-11-09T08:20:51.035Z,25.70
2022-11-09T08:23:21.123Z,27.88
2022-11-09T08:25:50.132Z,27.08
2022-11-09T08:28:17.468Z,26.17
2022-11-09T08:30:46.126Z,26.85
2022-11-09T08:33:13.632Z,27.38
2022-11-09T08:35:40.674Z,25.88
2022-11-09T08:38:07.731Z,28.77
2022-11-09T08:40:35.166Z,26.88
2022-11-09T08:43:08.695Z,26.00
2022-11-09T08:45:38.812Z,26.50
2022-11-09T08:48:08.246Z,26.20
2022-11-09T08:50:36.994Z,29.33
2022-11-09T08:53:05.614Z,29.58
2022-11-09T08:55:32.949Z,28.45
2022-11-09T08:58:02.206Z,27.70
2022-11-09T09:00:29.833Z,27.52
2022-11-09T09:02:57.217Z,26.25
2022-11-09T09:05:24.375Z,27.08
2022-11-09T09:07:51.407Z,27.55
2022-11-09T09:10:18.789Z,25.15
2022-11-09T09:12:46.042Z,27.30
2022-11-09T09:15:13.189Z,27.02
2022-11-09T09:17:40.278Z,29.23
2022-11-09T09:20:07.870Z,30.17
2022-11-09T09:22:35.229Z,29.48
2022-11-09T09:25:02.841Z,28.40
2022-11-09T09:27:30.226Z,27.88
2022-11-09T09:29:58.535Z,27.75
2022-11-09T09:32:25.682Z,28.73
2022-11-09T09:34:53.169Z,28.65
2022-11-09T09:37:20.217Z,25.55
2022-11-09T09:39:47.379Z,27.13
2022-11-09T09:42:23.222Z,27.35
2022-11-09T09:45:02.023Z,27.65
2022-11-09T09:48:28.459Z,27.15
2022-11-09T09:51:04.794Z,28.13
2022-11-09T09:53:53.750Z,27.70
2022-11-09T09:56:38.867Z,26.52
2022-11-09T09:59:20.776Z,24.67
2022-11-09T10:01:49.009Z,26.23
2022-11-09T10:04:45.137Z,27.83
2022-11-09T10:07:41.761Z,27.42
2022-11-09T10:10:37.046Z,25.55
2022-11-09T10:13:31.861Z,26.75
2022-11-09T10:16:43.423Z,27.55
2022-11-09T10:19:24.235Z,26.30
2022-11-09T10:22:32.099Z,24.90
2022-11-09T10:25:27.498Z,27.83
2022-11-09T10:28:04.206Z,25.30
2022-11-09T10:30:33.056Z,27.10
2022-11-09T10:33:11.500Z,26.67
2022-11-09T10:35:58.232Z,27.05
2022-11-09T10:38:38.626Z,26.30
2022-11-09T10:41:17.874Z,25.10
2022-11-09T10:43:45.010Z,26.80
2022-11-09T10:46:12.084Z,25.15
2022-11-09T10:48:40.518Z,25.27
2022-11-09T10:51:32.194Z,27.77
2022-11-09T10:54:21.764Z,28.73
2022-11-09T10:57:14.697Z,27.75
2022-11-09T10:59:45.179Z,26.60
2022-11-09T11:02:28.943Z,26.92
2022-11-09T11:05:08.196Z,25.80
2022-11-09T11:07:36.358Z,25.10
2022-11-09T11:10:15.320Z,26.70
2022-11-09T11:12:57.023Z,25.67
2022-11-09T11:15:40.287Z,26.75
2022-11-09T11:18:27.696Z,24.25
2022-11-09T11:21:19.965Z,22.98
2022-11-09T11:24:17.364Z,23.05
2022-11-09T11:27:10.491Z,24.63
2022-11-09T11:29:53.384Z,24.05
2022-11-09T11:32:21.185Z,25.00
2022-11-09T11:35:04.213Z,24.80
2022-11-09T11:37:40.335Z,25.48
2022-11-09T11:40:25.800Z,24.92
2022-11-09T11:43:39.766Z,25.00
2022-11-09T11:46:38.930Z,23.85
2022-11-09T11:49:14.847Z,23.48
2022-11-09T11:51:59.167Z,24.60
2022-11-09T11:55:05.546Z,24.83
2022-11-09T11:58:08.665Z,26.27
2022-11-09T12:01:06.382Z,24.65
2022-11-09T12:03:50.826Z,26.23
2022-11-09T12:06:26.285Z,24.42
2022-11-09T12:09:13.549Z,25.15
2022-11-09T12:12:07.636Z,23.67
2022-11-09T12:14:42.505Z,25.92
2022-11-09T12:17:40.584Z,23.47
2022-11-09T12:20:29.239Z,22.35
2022-11-09T12:23:21.465Z,22.52
2022-11-09T12:26:36.085Z,22.92
2022-11-09T12:29:24.381Z,24.35
2022-11-09T12:32:56.468Z,23.08
2022-11-09T12:35:42.052Z,22.85
2022-11-09T12:38:32.087Z,25.42
2022-11-09T12:41:10.273Z,24.63
2022-11-09T12:43:49.221Z,23.73
2022-11-09T12:46:21.340Z,23.33
2022-11-09T12:48:49.749Z,22.98
2022-11-09T12:51:18.036Z,24.50
2022-11-09T12:53:45.091Z,22.10
2022-11-09T12:56:35.907Z,25.17
2022-11-09T12:59:27.734Z,24.63
2022-11-09T13:02:00.384Z,23.73
2022-11-09T13:04:27.837Z,23.98
2022-11-09T13:07:03.844Z,22.35
2022-11-09T13:09:44.021Z,23.10
2022-11-09T13:12:42.757Z,24.35
2022-11-09T13:15:29.284Z,25.40
2022-11-09T13:18:33.655Z,22.92
2022-11-09T13:21:21.026Z,23.60
2022-11-09T13:24:04.483Z,23.43
2022-11-09T13:26:32.146Z,21.48
2022-11-09T13:29:21.278Z,22.40
2022-11-09T13:32:13.069Z,23.45
2022-11-09T13:35:00.491Z,22.15
2022-11-09T13:37:37.897Z,24.58
2022-11-09T13:40:32.912Z,22.92
2022-11-09T13:43:29.017Z,26.23
2022-11-09T13:46:18.942Z,22.73
2022-11-09T13:48:54.224Z,24.70
2022-11-09T13:51:36.481Z,24.00
2022-11-09T13:54:05.919Z,24.42
2022-11-09T13:56:35.713Z,24.77
2022-11-09T13:59:24.927Z,24.60
2022-11-09T14:01:55.892Z,23.90
2022-11-09T14:04:25.844Z,23.55
2022-11-09T14:07:14.613Z,24.50
2022-11-09T14:10:01.526Z,24.27
2022-11-09T14:12:41.988Z,23.15
2022-11-09T14:15:40.046Z,23.70
2022-11-09T14:18:10.830Z,23.80
2022-11-09T14:21:18.243Z,24.65
2022-11-09T14:23:45.364Z,23.27
2022-11-09T14:26:23.018Z,24.17
2022-11-09T14:28:50.369Z,23.75
2022-11-09T14:31:24.247Z,22.58
2022-11-09T14:34:06.162Z,22.98
2022-11-09T14:36:35.127Z,24.90
2022-11-09T14:39:06.657Z,23.15
2022-11-09T14:41:34.897Z,23.33
2022-11-09T14:44:02.112Z,23.65
2022-11-09T14:46:31.655Z,25.55
2022-11-09T14:49:02.338Z,25.92
2022-11-09T14:51:40.467Z,24.42
2022-11-09T14:54:14.459Z,23.52
2022-11-09T14:56:43.518Z,24.30
2022-11-09T14:59:22.947Z,24.75
2022-11-09T15:02:08.409Z,23.83
2022-11-09T15:05:04.764Z,23.05
2022-11-09T15:07:35.469Z,22.70
2022-11-09T15:10:20.567Z,26.70
2022-11-09T15:12:50.913Z,23.30
2022-11-09T15:15:24.416Z,26.40
2022-11-09T15:17:52.047Z,24.98
2022-11-09T15:20:18.986Z,23.15
2022-11-09T15:23:06.269Z,25.45
2022-11-09T15:25:42.151Z,24.52
2022-11-09T15:30:53.829Z,23.13
2022-11-09T15:33:29.941Z,25.10
2022-11-09T15:36:01.335Z,23.98
2022-11-09T15:38:29.769Z,23.83
2022-11-09T15:40:56.978Z,25.42
2022-11-09T15:43:24.165Z,23.27
2022-11-09T15:45:51.322Z,24.50
2022-11-09T15:48:18.728Z,25.90
2022-11-09T15:50:46.341Z,24.63
2022-11-09T15:53:15.087Z,23.98
2022-11-09T15:55:42.294Z,25.02
2022-11-09T15:58:14.533Z,23.80
2022-11-09T16:00:42.483Z,23.83
2022-11-09T16:03:10.925Z,24.73
2022-11-09T16:05:38.692Z,25.70
2022-11-09T16:08:07.710Z,26.10
2022-11-09T16:10:37.880Z,25.27
2022-11-09T16:13:06.844Z,24.35
2022-11-09T16:15:36.477Z,24.25
2022-11-09T16:18:04.326Z,24.58
2022-11-09T16:20:32.028Z,23.77
2022-11-09T16:22:59.521Z,24.08
2022-11-09T16:25:27.481Z,23.60
2022-11-09T16:27:55.218Z,22.77
2022-11-09T16:30:22.903Z,24.58
2022-11-09T16:32:50.244Z,24.52
2022-11-09T16:35:32.754Z,23.25
2022-11-09T16:38:03.902Z,23.77
2022-11-09T16:40:31.891Z,22.35
2022-11-09T16:43:00.863Z,21.92
2022-11-09T16:45:33.133Z,21.52
2022-11-09T16:48:04.775Z,23.15
2022-11-09T16:50:32.090Z,23.38
2022-11-09T16:52:59.630Z,24.23
2022-11-09T16:55:27.220Z,23.60
2022-11-09T16:57:54.543Z,24.05
2022-11-09T17:00:25.632Z,23.70
2022-11-09T17:03:04.709Z,21.95
2022-11-09T17:05:32.339Z,21.75
2022-11-09T17:07:59.841Z,21.02
2022-11-09T17:10:26.978Z,22.65
2022-11-09T17:12:54.796Z,21.00
2022-11-09T17:15:27.749Z,22.67
2022-11-09T17:17:55.249Z,21.50
2022-11-09T17:20:22.532Z,20.90
2022-11-09T17:22:50.081Z,20.15
2022-11-09T17:25:17.564Z,22.45
2022-11-09T17:27:45.569Z,21.92
2022-11-09T17:30:13.174Z,24.42
2022-11-09T17:32:42.395Z,23.17
2022-11-09T17:35:10.060Z,23.15
2022-11-09T17:37:39.443Z,23.52
2022-11-09T17:40:13.001Z,23.15
2022-11-09T17:42:41.071Z,23.90
2022-11-09T17:45:09.507Z,23.50
2022-11-09T17:47:37.126Z,23.73
2022-11-09T17:50:06.776Z,23.88
2022-11-09T17:52:35.150Z,26.17
2022-11-09T17:55:03.242Z,25.13
2022-11-09T17:57:31.796Z,26.17
2022-11-09T18:00:00.207Z,22.90
2022-11-09T18:02:28.105Z,24.60
2022-11-09T18:04:55.635Z,24.17
2022-11-09T18:07:23.951Z,23.30
2022-11-09T18:09:51.680Z,23.83
2022-11-09T18:12:20.271Z,24.27
2022-11-09T18:14:48.564Z,24.83
2022-11-09T18:17:18.086Z,23.63
2022-11-09T18:19:46.358Z,23.30
2022-11-09T18:22:14.885Z,24.25
2022-11-09T18:24:42.852Z,23.00
2022-11-09T18:27:10.938Z,23.27
2022-11-09T18:29:39.153Z,24.95
2022-11-09T18:32:07.469Z,22.33
2022-11-09T18:34:35.077Z,23.20
2022-11-09T18:37:06.126Z,23.95
2022-11-09T18:39:33.859Z,28.75
2022-11-09T18:42:02.481Z,26.33
2022-11-09T18:44:32.415Z,26.90
2022-11-09T18:47:04.997Z,27.60
2022-11-09T18:49:33.269Z,27.65
2022-11-09T18:52:01.982Z,28.85
2022-11-09T18:54:30.313Z,27.38
2022-11-09T18:56:58.808Z,27.90
2022-11-09T18:59:26.803Z,25.33
2022-11-09T19:01:55.736Z,26.55
2022-11-09T19:04:24.775Z,25.10
2022-11-09T19:06:55.309Z,27.95
2022-11-09T19:09:29.706Z,28.00
2022-11-09T19:12:00.876Z,28.77
2022-11-09T19:14:31.438Z,28.38
2022-11-09T19:17:01.846Z,31.00
2022-11-09T19:19:29.659Z,28.88
2022-11-09T19:21:58.168Z,28.60
2022-11-09T19:24:28.593Z,27.38
2022-11-09T19:26:57.955Z,28.02
2022-11-09T19:29:27.011Z,24.58
2022-11-09T19:31:56.609Z,22.25
2022-11-09T19:34:27.527Z,22.30
2022-11-09T19:36:56.358Z,21.20
2022-11-09T19:39:30.985Z,24.38
2022-11-09T19:42:01.991Z,21.23
2022-11-09T19:44:30.958Z,21.65
2022-11-09T19:46:59.482Z,21.45
2022-11-09T19:49:27.399Z,22.05
2022-11-09T19:51:56.803Z,21.63
2022-11-09T19:54:25.099Z,24.70
2022-11-09T19:56:54.309Z,24.98
2022-11-09T19:59:23.120Z,26.85
2022-11-09T20:01:51.116Z,29.67
2022-11-09T20:04:20.929Z,27.23
2022-11-09T20:06:50.816Z,31.33
2022-11-09T20:09:19.281Z,32.42
2022-11-09T20:12:09.069Z,29.73
2022-11-09T20:14:36.686Z,32.53
2022-11-09T20:17:06.095Z,34.75
2022-11-09T20:19:35.491Z,35.17
2022-11-09T20:22:04.101Z,32.28
2022-11-09T20:24:32.218Z,32.60
2022-11-09T20:27:00.362Z,33.53
2022-11-09T20:29:29.722Z,34.00
2022-11-09T20:31:58.503Z,32.28
2022-11-09T20:34:26.458Z,31.23
2022-11-09T20:36:55.272Z,32.97
2022-11-09T20:39:23.274Z,34.45
2022-11-09T20:41:52.018Z,30.35
2022-11-09T20:44:20.167Z,28.10
2022-11-09T20:46:48.160Z,28.70
2022-11-09T20:49:16.032Z,27.75
2022-11-09T20:51:43.907Z,28.50
2022-11-09T20:54:12.975Z,29.70
2022-11-09T20:56:42.999Z,27.58
2022-11-09T20:59:12.655Z,27.50
2022-11-09T21:01:40.430Z,28.88
2022-11-09T21:04:08.479Z,28.40
2022-11-09T21:06:36.438Z,26.90
2022-11-09T21:09:05.759Z,29.60
2022-11-09T21:11:36.735Z,26.33
2022-11-09T21:14:04.670Z,25.02
2022-11-09T21:16:32.131Z,26.30
2022-11-09T21:18:59.226Z,26.48
2022-11-09T21:21:27.475Z,26.23
2022-11-09T21:24:15.686Z,24.02
2022-11-09T21:27:01.319Z,25.13
2022-11-09T21:29:47.878Z,24.45
2022-11-09T21:32:15.323Z,24.75
2022-11-09T21:34:42.768Z,25.17
2022-11-09T21:37:15.238Z,23.15
2022-11-09T21:39:43.675Z,23.55
2022-11-09T21:42:12.085Z,22.75
2022-11-09T21:44:41.156Z,20.65
2022-11-09T21:47:08.846Z,20.60
2022-11-09T21:49:36.224Z,21.25
2022-11-09T21:52:07.631Z,20.25
2022-11-09T21:54:34.785Z,19.80
2022-11-09T21:57:01.864Z,20.17
2022-11-09T21:59:28.944Z,21.35
2022-11-09T22:01:56.120Z,22.02
2022-11-09T22:04:23.273Z,25.40
2022-11-09T22:06:50.499Z,28.02
2022-11-09T22:09:18.765Z,30.95
2022-11-09T22:12:04.720Z,25.40
2022-11-09T22:14:50.400Z,23.20
2022-11-09T22:17:17.512Z,24.92
2022-11-09T22:20:03.336Z,24.80
2022-11-09T22:22:31.667Z,24.10
2022-11-09T22:24:58.801Z,22.58
2022-11-09T22:27:26.180Z,23.42
2022-11-09T22:29:53.236Z,23.27
2022-11-09T22:32:21.303Z,25.15
2022-11-09T22:34:48.647Z,24.58
2022-11-09T22:37:15.899Z,22.80
2022-11-09T22:39:47.085Z,23.35
2022-11-09T22:42:14.823Z,23.92
2022-11-09T22:44:41.993Z,23.70
2022-11-09T22:47:09.305Z,26.25
2022-11-09T22:49:36.897Z,24.02
2022-11-09T22:52:05.268Z,25.38
2022-11-09T22:54:32.442Z,24.10
2022-11-09T22:56:59.558Z,25.35
2022-11-09T22:59:26.832Z,24.70
2022-11-09T23:01:54.011Z,24.65
2022-11-09T23:04:21.233Z,24.77
2022-11-09T23:06:48.414Z,25.33
2022-11-09T23:09:15.641Z,25.73
2022-11-09T23:11:42.994Z,24.15
2022-11-09T23:14:10.986Z,23.17
2022-11-09T23:16:38.103Z,25.25
2022-11-09T23:19:05.206Z,24.08
2022-11-09T23:21:35.807Z,26.60
2022-11-09T23:24:06.732Z,26.05
2022-11-09T23:26:34.359Z,24.58
2022-11-09T23:29:01.494Z,26.00
2022-11-09T23:31:28.682Z,25.52
2022-11-09T23:33:58.003Z,26.73
2022-11-09T23:36:26.616Z,26.05
2022-11-09T23:38:53.775Z,25.90
2022-11-09T23:41:21.473Z,25.25
2022-11-09T23:43:49.801Z,25.58
2022-11-09T23:46:18.100Z,26.98
2022-11-09T23:48:45.436Z,27.33
2022-11-09T23:51:13.025Z,24.80
2022-11-09T23:53:40.198Z,25.27
2022-11-09T23:56:12.064Z,27.10
2022-11-09T23:58:39.360Z,27.15
